Ole-arvid Nergaard — LLAY — position and weather

sailwx.info

Track history (hours):
 
Tides and Currents Weather Stations Pressure Air Temp Water Temp Dewpoint Dewpoint Depression Visibility Wind Speed Wind Dir Waves Ship Positions

Ole-arvid Nergaard

Last reported at 2016-Apr-14 21:33 UTC. Time now 2016-May-03 01:05 UTC.
Position N 69°43' E 019°04'.
Warning: this ship's position is 18 days out of date.

Length 55 m; draft 7.2 m.

Type: Fishing. MMSI: 259656000.

Date/timePositionNaut miles runAvg speedWind from/ knotsBaromVisibWave heightAir tempDewpointWater temp
2016-Apr-14 21:33N 69°43' E 019°04'1 0.9
2016-Apr-14 20:33N 69°42' E 019°05'3 3.2
2016-Apr-14 19:33N 69°40' E 018°58'1 0.9
2016-Apr-14 18:33N 69°40' E 018°59'0 0.0
2016-Apr-14 17:33N 69°40' E 018°59'0 0.0
2016-Apr-14 16:33N 69°40' E 018°59'0 0.0
2016-Apr-14 15:33N 69°40' E 018°59'0 0.0
2016-Apr-14 14:33N 69°40' E 018°59'0 0.0
2016-Apr-14 13:33N 69°40' E 018°59'0 0.0
2016-Apr-14 12:33N 69°40' E 018°59'0 0.0
2016-Apr-14 11:33N 69°40' E 018°59'0 0.0
2016-Apr-14 10:33N 69°40' E 018°59'0 0.0
2016-Apr-14 09:33N 69°40' E 018°59'0 0.0
2016-Apr-14 08:33N 69°40' E 018°59'0 0.0
2016-Apr-14 07:33N 69°40' E 018°59'0 0.0
2016-Apr-14 06:33N 69°40' E 018°59'0 0.0
2016-Apr-14 05:33N 69°40' E 018°59'0 0.0
2016-Apr-14 04:33N 69°40' E 018°59'0 0.0
2016-Apr-14 03:33N 69°40' E 018°59'0 0.0
2016-Apr-14 02:33N 69°40' E 018°59'0 0.0
2016-Apr-14 01:33N 69°40' E 018°59'0 0.0
2016-Apr-14 00:33N 69°40' E 018°59'0 0.0
2016-Apr-13 23:33N 69°40' E 018°59'0 0.0
2016-Apr-13 22:33N 69°40' E 018°59'0 0.0
2016-Apr-13 21:33N 69°40' E 018°59'0 0.0
2016-Apr-13 20:33N 69°40' E 018°59'0 0.0
2016-Apr-13 19:33N 69°40' E 018°59'0 0.0
2016-Apr-13 18:33N 69°40' E 018°59'0 0.0
2016-Apr-13 17:33N 69°40' E 018°59'0 0.0
2016-Apr-13 16:33N 69°40' E 018°59'0 0.0
2016-Apr-13 15:33N 69°40' E 018°59'0 0.0
2016-Apr-13 14:33N 69°40' E 018°59'0 0.0
2016-Apr-13 13:33N 69°40' E 018°59'0 0.0
2016-Apr-13 12:33N 69°40' E 018°59'0 0.0
2016-Apr-13 11:33N 69°40' E 018°59'0 0.0
2016-Apr-13 10:33N 69°40' E 018°59'0 0.0
2016-Apr-13 09:33N 69°40' E 018°59'0 0.0
2016-Apr-13 08:33N 69°40' E 018°59'0 0.0
2016-Apr-13 07:33N 69°40' E 018°59'0 0.0
2016-Apr-13 06:33N 69°40' E 018°59'0 0.0
2016-Apr-13 05:33N 69°40' E 018°59'0 0.0
2016-Apr-13 04:33N 69°40' E 018°59'0 0.0
2016-Apr-13 03:33N 69°40' E 018°59'0 0.0
2016-Apr-13 02:33N 69°40' E 018°59'0 0.0
2016-Apr-13 01:33N 69°40' E 018°59'4 3.9
2016-Apr-13 00:33N 69°37' E 018°55'  
Track history (hours):
 
Tides and Currents Weather Stations Pressure Air Temp Water Temp Dewpoint Dewpoint Depression Visibility Wind Speed Wind Dir Waves Ship Positions

Ole-arvid Nergaard

Last reported at 2016-Apr-14 21:33 UTC. Time now 2016-May-03 01:05 UTC.
Position N 69°43' E 019°04'.
Warning: this ship's position is 18 days out of date.

Length 55 m; draft 7.2 m.

Type: Fishing. MMSI: 259656000.

Date/timePositionNaut miles runAvg speedWind from/ knotsBaromVisibWave heightAir tempDewpointWater temp
2016-Apr-14 21:33N 69°43' E 019°04'1 0.9
2016-Apr-14 20:33N 69°42' E 019°05'3 3.2
2016-Apr-14 19:33N 69°40' E 018°58'1 0.9
2016-Apr-14 18:33N 69°40' E 018°59'0 0.0
2016-Apr-14 17:33N 69°40' E 018°59'0 0.0
2016-Apr-14 16:33N 69°40' E 018°59'0 0.0
2016-Apr-14 15:33N 69°40' E 018°59'0 0.0
2016-Apr-14 14:33N 69°40' E 018°59'0 0.0
2016-Apr-14 13:33N 69°40' E 018°59'0 0.0
2016-Apr-14 12:33N 69°40' E 018°59'0 0.0
2016-Apr-14 11:33N 69°40' E 018°59'0 0.0
2016-Apr-14 10:33N 69°40' E 018°59'0 0.0
2016-Apr-14 09:33N 69°40' E 018°59'0 0.0
2016-Apr-14 08:33N 69°40' E 018°59'0 0.0
2016-Apr-14 07:33N 69°40' E 018°59'0 0.0
2016-Apr-14 06:33N 69°40' E 018°59'0 0.0
2016-Apr-14 05:33N 69°40' E 018°59'0 0.0
2016-Apr-14 04:33N 69°40' E 018°59'0 0.0
2016-Apr-14 03:33N 69°40' E 018°59'0 0.0
2016-Apr-14 02:33N 69°40' E 018°59'0 0.0
2016-Apr-14 01:33N 69°40' E 018°59'0 0.0
2016-Apr-14 00:33N 69°40' E 018°59'0 0.0
2016-Apr-13 23:33N 69°40' E 018°59'0 0.0
2016-Apr-13 22:33N 69°40' E 018°59'0 0.0
2016-Apr-13 21:33N 69°40' E 018°59'0 0.0
2016-Apr-13 20:33N 69°40' E 018°59'0 0.0
2016-Apr-13 19:33N 69°40' E 018°59'0 0.0
2016-Apr-13 18:33N 69°40' E 018°59'0 0.0
2016-Apr-13 17:33N 69°40' E 018°59'0 0.0
2016-Apr-13 16:33N 69°40' E 018°59'0 0.0
2016-Apr-13 15:33N 69°40' E 018°59'0 0.0
2016-Apr-13 14:33N 69°40' E 018°59'0 0.0
2016-Apr-13 13:33N 69°40' E 018°59'0 0.0
2016-Apr-13 12:33N 69°40' E 018°59'0 0.0
2016-Apr-13 11:33N 69°40' E 018°59'0 0.0
2016-Apr-13 10:33N 69°40' E 018°59'0 0.0
2016-Apr-13 09:33N 69°40' E 018°59'0 0.0
2016-Apr-13 08:33N 69°40' E 018°59'0 0.0
2016-Apr-13 07:33N 69°40' E 018°59'0 0.0
2016-Apr-13 06:33N 69°40' E 018°59'0 0.0
2016-Apr-13 05:33N 69°40' E 018°59'0 0.0
2016-Apr-13 04:33N 69°40' E 018°59'0 0.0
2016-Apr-13 03:33N 69°40' E 018°59'0 0.0
2016-Apr-13 02:33N 69°40' E 018°59'0 0.0
2016-Apr-13 01:33N 69°40' E 018°59'4 3.9
2016-Apr-13 00:33N 69°37' E 018°55'  

Dump ship's entire track history